Time;durP1;ratioP1;P1;durP2;ratioP2;P2;SDS_P1;SDS_P2;PMS_P1;PMS_P2;Temp;Humidity;BMP_temperature;BMP_pressure;BME280_temperature;BME280_humidity;BME280_pressure;Samples;Min_cycle;Max_cycle;Signal;HPM_P1;HPM_P2
2023/04/08 00:01:13;;;;;;;0.00;0.00;;;;;;;5.56;75.05;101025.78;6224896;22;20034;-77
2023/04/08 00:03:50;;;;;;;0.00;0.00;;;;;;;5.56;74.90;101031.19;6223956;22;20012;-77
2023/04/08 00:06:16;;;;;;;0.00;0.00;;;;;;;5.57;74.66;101027.44;6243602;22;20026;-79
2023/04/08 00:08:41;;;;;;;0.00;0.00;;;;;;;5.50;74.87;101026.66;6274897;22;20083;-78
2023/04/08 00:11:07;;;;;;;0.00;0.00;;;;;;;5.39;74.99;101004.59;6271187;22;20004;-77
2023/04/08 00:13:42;;;;;;;0.00;0.00;;;;;;;5.42;74.83;101023.13;6245853;22;20091;-77
2023/04/08 00:16:08;;;;;;;0.00;0.00;;;;;;;5.31;75.08;101015.69;6273227;22;20290;-76
2023/04/08 00:18:33;;;;;;;0.00;0.00;;;;;;;5.40;75.59;101038.81;6222966;22;20012;-76
2023/04/08 00:21:06;;;;;;;0.00;0.00;;;;;;;5.43;75.86;101032.09;6249322;22;20014;-77
2023/04/08 00:23:34;;;;;;;0.00;0.00;;;;;;;5.28;75.32;101016.13;6268581;22;20007;-77
2023/04/08 00:26:00;;;;;;;0.00;0.00;;;;;;;5.34;75.38;101023.38;6247932;22;20007;-76
2023/04/08 00:28:25;;;;;;;0.00;0.00;;;;;;;5.38;75.40;101040.88;6270813;22;20093;-75
2023/04/08 00:30:52;;;;;;;0.00;0.00;;;;;;;5.30;74.95;101022.19;6220337;22;20012;-76
2023/04/08 00:33:30;;;;;;;;;;;;;;;;;;;;;
2023/04/08 00:35:58;;;;;;;0.00;0.00;;;;;;;5.42;75.57;101044.03;6250894;22;20395;-76
2023/04/08 00:38:24;;;;;;;0.00;0.00;;;;;;;5.25;75.65;101024.69;6245885;22;20645;-76
2023/04/08 00:40:49;;;;;;;0.00;0.00;;;;;;;5.18;75.60;101027.44;6218972;22;20011;-77
2023/04/08 00:43:15;;;;;;;0.00;0.00;;;;;;;5.11;75.58;101015.81;6275651;22;20008;-75
2023/04/08 00:45:43;;;;;;;0.10;0.10;;;;;;;5.02;75.71;101009.78;6243789;22;20023;-78
2023/04/08 00:48:08;;;;;;;0.00;0.00;;;;;;;4.96;76.08;101016.03;6267710;22;20004;-78
2023/04/08 00:50:34;;;;;;;0.00;0.00;;;;;;;5.00;75.97;101027.31;6244600;22;20003;-75
2023/04/08 00:52:59;;;;;;;0.10;0.10;;;;;;;4.99;76.65;101031.88;6268056;22;20010;-76
2023/04/08 00:55:25;;;;;;;0.00;0.00;;;;;;;4.98;76.83;101035.66;6267873;22;20008;-76
2023/04/08 00:57:53;;;;;;;0.00;0.00;;;;;;;4.93;76.64;101021.91;6265308;22;20016;-80
2023/04/08 01:00:18;;;;;;;0.00;0.00;;;;;;;5.01;76.31;101040.66;6271009;22;20031;-77
2023/04/08 01:03:00;;;;;;;0.00;0.00;;;;;;;4.98;77.06;101062.75;6238636;22;20431;-75
2023/04/08 01:05:45;;;;;;;0.00;0.00;;;;;;;4.91;76.76;101059.22;6238532;22;20008;-78
2023/04/08 01:08:15;;;;;;;0.00;0.00;;;;;;;4.81;77.34;101051.53;6237936;22;20012;-77
2023/04/08 01:10:44;;;;;;;0.00;0.00;;;;;;;4.81;77.09;101053.44;6265009;22;20008;-77
2023/04/08 01:13:13;;;;;;;0.00;0.00;;;;;;;4.76;77.02;101047.78;6236420;22;20011;-77
2023/04/08 01:15:41;;;;;;;0.00;0.00;;;;;;;4.79;77.58;101055.50;6272269;22;20049;-79
2023/04/08 01:18:11;;;;;;;0.00;0.00;;;;;;;4.61;77.66;101048.88;6241135;22;20939;-77
2023/04/08 01:20:39;;;;;;;0.08;0.08;;;;;;;4.53;78.12;101043.69;6270534;22;20053;-78
2023/04/08 01:23:10;;;;;;;0.00;0.00;;;;;;;4.52;78.29;101063.69;6267776;22;20004;-77
2023/04/08 01:25:40;;;;;;;0.08;0.08;;;;;;;4.46;78.03;101056.41;6267586;22;20006;-78
2023/04/08 01:28:15;;;;;;;0.10;0.10;;;;;;;4.52;78.67;101060.97;6241636;22;20069;-77
2023/04/08 01:30:42;;;;;;;0.00;0.00;;;;;;;4.52;78.46;101069.91;6270988;22;20355;-78
2023/04/08 01:33:12;;;;;;;0.10;0.10;;;;;;;4.45;78.90;101060.16;6242017;22;20417;-79
2023/04/08 01:35:38;;;;;;;0.00;0.00;;;;;;;4.43;78.32;101060.34;6268742;22;20003;-79
2023/04/08 01:38:07;;;;;;;0.00;0.00;;;;;;;4.46;78.74;101065.34;6268295;22;20003;-78
2023/04/08 01:40:34;;;;;;;0.00;0.00;;;;;;;4.20;78.90;101044.53;6263907;22;20055;-77
2023/04/08 01:43:01;;;;;;;0.00;0.00;;;;;;;4.42;78.18;101074.09;6269245;22;20007;-78
2023/04/08 01:45:29;;;;;;;0.00;0.00;;;;;;;4.33;78.54;101068.06;6268458;22;20021;-77
2023/04/08 01:47:55;;;;;;;0.10;0.10;;;;;;;4.19;79.16;101050.97;6271062;22;20082;-77
2023/04/08 01:50:21;;;;;;;0.10;0.10;;;;;;;4.22;79.08;101066.84;6270875;22;20000;-76
2023/04/08 01:52:49;;;;;;;0.00;0.00;;;;;;;4.18;79.29;101057.47;6244614;22;20027;-77
2023/04/08 01:55:16;;;;;;;0.00;0.00;;;;;;;4.04;79.22;101044.97;6247161;22;20414;-77
2023/04/08 01:57:56;;;;;;;;;;;;;;;;;;;;;
2023/04/08 02:00:25;;;;;;;0.00;0.00;;;;;;;4.03;79.51;101060.38;6273566;22;20393;-77
2023/04/08 02:02:52;;;;;;;0.00;0.00;;;;;;;3.95;79.41;101055.97;6267236;22;20425;-79
2023/04/08 02:05:17;;;;;;;0.00;0.00;;;;;;;3.88;79.29;101057.84;6245419;22;20036;-78
2023/04/08 02:07:46;;;;;;;0.00;0.00;;;;;;;3.76;79.65;101056.78;6266622;22;20024;-77
2023/04/08 02:10:14;;;;;;;0.10;0.10;;;;;;;3.73;80.27;101071.56;6244924;22;20015;-78
2023/04/08 02:12:41;;;;;;;0.00;0.00;;;;;;;3.69;80.66;101066.75;6241802;22;20136;-78
2023/04/08 02:15:10;;;;;;;0.00;0.00;;;;;;;3.66;80.69;101066.16;6244546;22;20390;-78
2023/04/08 02:17:46;;;;;;;0.00;0.00;;;;;;;3.75;80.54;101079.47;6217485;22;20004;-77
2023/04/08 02:20:23;;;;;;;0.00;0.00;;;;;;;3.78;81.05;101085.31;6243275;22;20015;-78
2023/04/08 02:23:07;;;;;;;0.00;0.00;;;;;;;3.69;81.15;101091.94;6273790;22;20008;-76
2023/04/08 02:26:30;;;;;;;0.00;0.00;;;;;;;3.55;81.39;101074.84;6273190;22;20004;-77
2023/04/08 02:28:57;;;;;;;0.00;0.00;;;;;;;3.30;81.66;101064.56;6195671;22;20114;-77
2023/04/08 02:31:23;;;;;;;0.00;0.00;;;;;;;3.28;81.89;101063.91;6244392;22;20003;-77
2023/04/08 02:33:52;;;;;;;0.00;0.00;;;;;;;3.30;81.66;101083.50;6268920;22;20012;-79
2023/04/08 02:36:18;;;;;;;0.00;0.00;;;;;;;3.25;81.79;101075.13;6245505;22;20018;-77
2023/04/08 02:38:48;;;;;;;0.00;0.00;;;;;;;3.03;82.35;101050.09;6213338;22;20094;-77
2023/04/08 02:41:15;;;;;;;0.00;0.00;;;;;;;3.20;82.34;101077.63;6241843;22;20011;-78
2023/04/08 02:43:40;;;;;;;0.03;0.03;;;;;;;3.05;82.00;101058.00;6269020;22;20019;-77
2023/04/08 02:46:07;;;;;;;0.00;0.00;;;;;;;3.13;82.70;101071.34;6241080;22;20002;-77
2023/04/08 02:48:32;;;;;;;0.00;0.00;;;;;;;3.16;82.43;101076.34;6270031;22;20004;-78
2023/04/08 02:51:01;;;;;;;0.00;0.00;;;;;;;3.07;83.08;101061.34;6264420;22;20221;-76
2023/04/08 02:53:26;;;;;;;0.00;0.00;;;;;;;3.15;83.02;101080.09;6244236;22;20801;-77
2023/04/08 02:55:52;;;;;;;0.00;0.00;;;;;;;3.15;82.72;101080.09;6266902;22;20045;-78
2023/04/08 02:58:17;;;;;;;0.10;0.10;;;;;;;2.95;83.00;101059.22;6218163;22;20007;-78
2023/04/08 03:00:43;;;;;;;0.00;0.00;;;;;;;3.14;82.99;101084.66;6218943;22;20018;-77
2023/04/08 03:03:08;;;;;;;0.00;0.00;;;;;;;3.22;83.21;101090.94;6267196;22;20011;-76
2023/04/08 03:05:41;;;;;;;0.00;0.00;;;;;;;3.25;83.36;101088.66;6219129;22;20003;-77
2023/04/08 03:08:14;;;;;;;0.00;0.00;;;;;;;3.36;83.31;101106.19;6240244;22;20007;-77
2023/04/08 03:10:40;;;;;;;0.00;0.00;;;;;;;3.38;82.95;101111.41;6270905;22;20303;-76
2023/04/08 03:13:05;;;;;;;0.00;0.00;;;;;;;3.16;82.70;101081.75;6241269;22;20007;-76
2023/04/08 03:15:30;;;;;;;0.00;0.00;;;;;;;3.31;83.78;101100.53;6270544;22;20100;-77
2023/04/08 03:17:56;;;;;;;0.00;0.00;;;;;;;3.31;82.77;101095.13;6242088;22;20004;-77
2023/04/08 03:20:21;;;;;;;0.10;0.10;;;;;;;3.30;83.60;101102.41;6245935;22;20496;-77
2023/04/08 03:22:47;;;;;;;0.00;0.00;;;;;;;3.17;83.09;101088.84;6270532;22;20008;-77
2023/04/08 03:25:12;;;;;;;0.00;0.00;;;;;;;3.19;83.57;101094.88;6266088;22;20397;-76
2023/04/08 03:27:38;;;;;;;0.00;0.00;;;;;;;3.15;83.64;101101.72;6270632;22;20438;-78
2023/04/08 03:30:03;;;;;;;0.00;0.00;;;;;;;3.19;83.72;101107.56;6242254;22;20418;-76
2023/04/08 03:32:31;;;;;;;0.00;0.00;;;;;;;3.20;83.67;101125.44;6246214;22;20334;-78
2023/04/08 03:35:05;;;;;;;0.10;0.10;;;;;;;3.13;84.11;101118.13;6242978;22;20018;-77
2023/04/08 03:37:30;;;;;;;0.00;0.00;;;;;;;3.12;84.19;101121.03;6272684;22;20004;-77
2023/04/08 03:39:56;;;;;;;0.00;0.00;;;;;;;2.95;84.32;101101.63;6269240;22;20078;-77
2023/04/08 03:42:22;;;;;;;0.10;0.10;;;;;;;3.06;84.45;101129.94;6265960;22;20774;-77
2023/04/08 03:44:47;;;;;;;0.00;0.00;;;;;;;2.93;84.71;101115.31;6271050;22;20007;-78
2023/04/08 03:47:13;;;;;;;0.00;0.00;;;;;;;2.85;84.44;101106.50;6243560;22;20008;-78
2023/04/08 03:49:41;;;;;;;0.00;0.00;;;;;;;2.76;84.40;101103.13;6245420;22;20007;-77
2023/04/08 03:52:07;;;;;;;0.00;0.00;;;;;;;2.82;84.42;101120.41;6221669;22;20279;-77
2023/04/08 03:54:32;;;;;;;0.00;0.00;;;;;;;2.86;84.79;101138.75;6241331;22;20011;-77
2023/04/08 03:56:57;;;;;;;0.00;0.00;;;;;;;2.77;84.83;101121.03;6270610;22;20754;-77
2023/04/08 03:59:23;;;;;;;0.10;0.10;;;;;;;2.78;84.87;101125.41;6244134;22;20086;-76
2023/04/08 04:01:58;;;;;;;0.00;0.00;;;;;;;2.78;84.74;101128.09;6224512;22;20098;-76
2023/04/08 04:04:26;;;;;;;0.00;0.00;;;;;;;2.73;84.57;101122.44;6271547;22;20004;-76
2023/04/08 04:06:51;;;;;;;0.10;0.10;;;;;;;2.77;84.85;101131.81;6235872;22;20063;-77
2023/04/08 04:09:17;;;;;;;0.00;0.00;;;;;;;2.66;84.72;101114.31;6243690;22;20438;-76
2023/04/08 04:11:42;;;;;;;0.00;0.00;;;;;;;2.57;84.76;101102.81;6215945;22;20407;-78
2023/04/08 04:14:08;;;;;;;0.00;0.00;;;;;;;2.53;84.76;101112.34;6270048;22;20000;-77
2023/04/08 04:16:33;;;;;;;0.00;0.00;;;;;;;2.49;84.96;101113.75;6236288;22;20423;-77
2023/04/08 04:18:59;;;;;;;0.00;0.00;;;;;;;2.47;84.82;101110.44;6244168;22;20004;-78
2023/04/08 04:21:24;;;;;;;0.10;0.10;;;;;;;2.53;84.75;101130.41;6238215;22;20037;-77
2023/04/08 04:23:52;;;;;;;0.00;0.00;;;;;;;2.46;85.17;101127.66;6243201;22;20012;-76
2023/04/08 04:26:17;;;;;;;0.00;0.00;;;;;;;2.37;85.01;101120.72;6214557;22;20000;-76
2023/04/08 04:28:43;;;;;;;0.00;0.00;;;;;;;2.38;85.29;101122.38;6268942;22;20326;-76
2023/04/08 04:31:22;;;;;;;0.00;0.00;;;;;;;2.47;85.59;101148.22;6242727;22;20015;-77
2023/04/08 04:33:48;;;;;;;0.00;0.00;;;;;;;2.42;85.44;101137.16;6241663;22;20079;-78
2023/04/08 04:36:14;;;;;;;0.00;0.00;;;;;;;2.46;85.23;101146.53;6268575;22;20000;-77
2023/04/08 04:38:41;;;;;;;0.00;0.00;;;;;;;2.48;85.24;101144.47;6263576;22;20015;-77
2023/04/08 04:41:07;;;;;;;0.00;0.00;;;;;;;2.49;85.47;101145.34;6243502;22;20011;-77
2023/04/08 04:43:32;;;;;;;0.10;0.10;;;;;;;2.34;85.46;101131.91;6238138;22;20007;-77
2023/04/08 04:45:58;;;;;;;0.00;0.00;;;;;;;2.23;85.26;101126.00;6268299;22;20054;-77
2023/04/08 04:48:24;;;;;;;0.00;0.00;;;;;;;2.31;85.38;101143.06;6242238;22;20007;-75
2023/04/08 04:50:56;;;;;;;0.00;0.00;;;;;;;2.30;85.31;101146.81;6238167;22;20448;-77
2023/04/08 04:53:22;;;;;;;0.00;0.00;;;;;;;2.18;85.34;101133.84;6269028;22;20054;-78
2023/04/08 04:56:00;;;;;;;0.10;0.10;;;;;;;2.17;85.58;101137.56;6263266;22;20085;-78
2023/04/08 04:58:26;;;;;;;0.00;0.00;;;;;;;2.22;86.08;101151.31;6242092;22;20000;-77
2023/04/08 05:00:51;;;;;;;0.00;0.00;;;;;;;2.16;85.49;101141.31;6236817;22;20011;-77
2023/04/08 05:03:17;;;;;;;0.00;0.00;;;;;;;2.13;85.87;101141.66;6218553;22;20087;-77
2023/04/08 05:05:52;;;;;;;0.00;0.00;;;;;;;2.10;86.16;101147.44;6237401;22;20503;-77
2023/04/08 05:08:18;;;;;;;0.00;0.00;;;;;;;2.22;86.49;101170.22;6242661;22;20466;-77
2023/04/08 05:10:44;;;;;;;0.00;0.00;;;;;;;2.08;85.81;101150.34;6213695;22;20031;-77
2023/04/08 05:13:09;;;;;;;0.00;0.00;;;;;;;2.20;86.21;101180.34;6266996;22;20393;-77
2023/04/08 05:15:37;;;;;;;0.00;0.00;;;;;;;2.05;86.38;101160.69;6269355;22;20038;-77
2023/04/08 05:18:02;;;;;;;0.00;0.00;;;;;;;2.14;86.20;101181.13;6239508;22;20007;-77
2023/04/08 05:20:28;;;;;;;0.00;0.00;;;;;;;2.01;86.29;101165.63;6219326;22;20016;-78
2023/04/08 05:22:56;;;;;;;0.00;0.00;;;;;;;1.96;86.78;101168.06;6265367;22;20027;-77
2023/04/08 05:25:21;;;;;;;0.10;0.10;;;;;;;2.01;86.91;101179.13;6244900;22;20082;-78
2023/04/08 05:27:47;;;;;;;0.00;0.00;;;;;;;1.95;86.93;101169.09;6215503;22;20038;-79
2023/04/08 05:30:15;;;;;;;0.00;0.00;;;;;;;2.01;86.92;101180.97;6244973;22;20004;-77
2023/04/08 05:32:40;;;;;;;0.00;0.00;;;;;;;2.01;86.60;101179.13;6271144;22;20069;-78
2023/04/08 05:35:06;;;;;;;0.00;0.00;;;;;;;2.13;86.88;101200.19;6240245;22;20410;-77
2023/04/08 05:37:32;;;;;;;0.00;0.00;;;;;;;2.04;86.58;101192.22;6245550;22;20007;-78
2023/04/08 05:40:00;;;;;;;0.00;0.00;;;;;;;1.96;86.53;101186.97;6265626;22;20007;-78
2023/04/08 05:42:26;;;;;;;0.00;0.00;;;;;;;2.11;86.58;101213.06;6245349;22;20075;-79
2023/04/08 05:44:51;;;;;;;0.00;0.00;;;;;;;1.98;86.67;101198.38;6239889;22;20042;-79
2023/04/08 05:47:16;;;;;;;0.00;0.00;;;;;;;1.99;86.82;101193.84;6219614;22;20004;-77
2023/04/08 05:49:42;;;;;;;0.00;0.00;;;;;;;1.99;86.13;101196.53;6244720;22;20069;-78
2023/04/08 05:52:10;;;;;;;0.00;0.00;;;;;;;2.07;86.09;101201.81;6240555;22;20094;-78
2023/04/08 05:54:41;;;;;;;0.00;0.00;;;;;;;2.21;86.29;101213.59;6243575;22;20004;-79
2023/04/08 05:57:07;;;;;;;0.00;0.00;;;;;;;2.11;86.44;101196.88;6264978;22;20004;-77
2023/04/08 05:59:32;;;;;;;0.00;0.00;;;;;;;2.17;86.12;101213.13;6243911;22;20010;-77
2023/04/08 06:01:58;;;;;;;0.00;0.00;;;;;;;2.12;86.51;101207.47;6264560;22;20007;-77
2023/04/08 06:04:23;;;;;;;0.00;0.00;;;;;;;2.13;86.23;101216.41;6219080;22;20099;-80
2023/04/08 06:06:49;;;;;;;0.00;0.00;;;;;;;2.09;86.47;101211.38;6241218;22;20143;-81
2023/04/08 06:09:14;;;;;;;0.00;0.00;;;;;;;2.18;86.59;101222.91;6270087;22;20078;-83
2023/04/08 06:11:46;;;;;;;0.00;0.00;;;;;;;2.13;87.05;101211.81;6270644;22;20027;-83
2023/04/08 06:14:11;;;;;;;0.00;0.00;;;;;;;2.27;86.30;101210.94;6243641;22;20090;-84
2023/04/08 06:16:55;;;;;;;0.00;0.00;;;;;;;2.48;86.43;101220.06;6245395;22;20027;-83
2023/04/08 06:19:23;;;;;;;0.00;0.00;;;;;;;2.60;86.36;101234.75;6215113;22;20011;-78
2023/04/08 06:21:50;;;;;;;0.00;0.00;;;;;;;2.71;86.61;101235.25;6245135;22;19995;-81
2023/04/08 06:24:16;;;;;;;0.00;0.00;;;;;;;2.69;86.03;101221.13;6217195;22;20117;-79
2023/04/08 06:26:43;;;;;;;0.10;0.10;;;;;;;2.92;86.27;101243.34;6239277;22;20027;-80
2023/04/08 06:29:11;;;;;;;0.00;0.00;;;;;;;2.89;85.81;101222.13;6218104;22;20439;-80
2023/04/08 06:31:40;;;;;;;0.00;0.00;;;;;;;3.10;85.93;101239.31;6239221;22;20003;-80
2023/04/08 06:34:14;;;;;;;0.00;0.00;;;;;;;3.28;86.14;101246.91;6270392;22;20007;-83
2023/04/08 08:03:28;;;;;;;0.00;0.00;;;;;;;9.78;72.93;101320.97;6234578;22;20058;-81
2023/04/08 08:06:01;;;;;;;0.00;0.00;;;;;;;10.57;70.07;101295.88;6261968;22;20087;-82
2023/04/08 08:08:32;;;;;;;0.00;0.00;;;;;;;11.52;68.02;101322.63;6270120;22;20007;-82
2023/04/08 08:11:10;;;;;;;0.00;0.00;;;;;;;12.10;65.82;101314.97;6266262;22;20423;-82
2023/04/08 08:13:53;;;;;;;0.00;0.00;;;;;;;12.89;63.67;101319.19;6247329;22;20003;-82
2023/04/08 08:16:18;;;;;;;0.00;0.00;;;;;;;13.60;61.59;101312.63;6265494;22;20011;-83
2023/04/08 08:18:46;;;;;;;0.00;0.00;;;;;;;14.02;60.27;101323.84;6236054;22;20441;-80
2023/04/08 08:21:14;;;;;;;0.00;0.00;;;;;;;14.65;58.90;101343.13;6265820;22;20114;-81
2023/04/08 08:23:40;;;;;;;0.00;0.00;;;;;;;14.66;58.03;101344.78;6259499;22;20027;-81
2023/04/08 08:26:26;;;;;;;0.00;0.00;;;;;;;14.62;58.04;101347.25;6265332;22;20003;-81
2023/04/08 08:28:58;;;;;;;0.00;0.00;;;;;;;14.61;57.66;101341.97;6261750;22;20065;-77
2023/04/08 08:31:24;;;;;;;0.00;0.00;;;;;;;14.40;57.82;101317.16;6264737;22;20115;-73
2023/04/08 08:33:49;;;;;;;0.00;0.00;;;;;;;15.42;56.74;101351.50;6261568;22;20031;-74
2023/04/08 08:36:23;;;;;;;0.00;0.00;;;;;;;15.68;54.61;101326.63;6267253;22;20368;-79
2023/04/08 08:38:48;;;;;;;0.00;0.00;;;;;;;15.68;54.56;101334.91;6206000;22;20003;-83
2023/04/08 08:41:21;;;;;;;0.00;0.00;;;;;;;15.97;53.55;101350.88;6239550;22;20020;-82
2023/04/08 08:43:49;;;;;;;0.00;0.00;;;;;;;15.85;53.44;101338.22;6212679;22;20419;-83
2023/04/08 08:46:18;;;;;;;0.00;0.00;;;;;;;15.99;53.18;101337.63;6243986;22;20014;-83
2023/04/08 08:48:44;;;;;;;0.00;0.00;;;;;;;16.41;53.01;101361.22;6254467;22;20083;-80
2023/04/08 08:51:15;;;;;;;0.00;0.00;;;;;;;16.70;52.03;101355.81;6269728;22;20004;-83
2023/04/08 08:53:44;;;;;;;0.00;0.00;;;;;;;16.96;50.58;101355.69;6231870;22;20008;-85
2023/04/08 08:56:10;;;;;;;0.00;0.00;;;;;;;17.25;50.53;101341.13;6247548;22;20380;-85
2023/04/08 08:58:35;;;;;;;0.00;0.00;;;;;;;18.07;49.12;101331.22;6257360;22;20094;-83
2023/04/08 09:01:23;;;;;;;0.00;0.00;;;;;;;19.39;47.59;101337.13;6268921;22;20085;-84
2023/04/08 09:04:06;;;;;;;0.00;0.00;;;;;;;20.40;44.82;101352.19;6216686;22;20107;-83
2023/04/08 09:06:33;;;;;;;0.00;0.00;;;;;;;19.95;45.08;101357.53;6267342;22;20057;-79
2023/04/08 09:09:00;;;;;;;0.00;0.00;;;;;;;20.94;44.72;101371.88;6262571;22;20004;-78
2023/04/08 09:11:37;;;;;;;0.00;0.00;;;;;;;22.23;41.33;101363.00;6267266;22;20444;-79
2023/04/08 09:14:03;;;;;;;0.00;0.00;;;;;;;23.51;39.39;101353.47;6265430;22;20004;-79
2023/04/08 09:16:29;;;;;;;0.00;0.00;;;;;;;24.69;37.55;101361.53;6258241;22;20066;-82
2023/04/08 09:19:09;;;;;;;0.00;0.00;;;;;;;24.60;36.90;101363.56;6272869;22;20003;-78
2023/04/08 09:21:37;;;;;;;0.00;0.00;;;;;;;25.93;35.66;101380.47;6271174;22;20034;-80
2023/04/08 09:24:39;;;;;;;;;;;;;;;;;;;;;
2023/04/08 09:27:05;;;;;;;0.00;0.00;;;;;;;29.73;29.87;101376.03;6255818;22;20087;-79
2023/04/08 09:29:42;;;;;;;0.00;0.00;;;;;;;32.81;26.85;101376.50;6228921;22;20039;-81
2023/04/08 09:32:08;;;;;;;0.00;0.00;;;;;;;34.88;24.14;101367.78;6268177;22;20010;-79
2023/04/08 09:34:43;;;;;;;0.00;0.00;;;;;;;36.97;22.49;101351.88;6229890;22;20016;-79
2023/04/08 09:37:16;;;;;;;0.00;0.00;;;;;;;39.00;20.09;101364.38;6265645;22;20004;-80
2023/04/08 09:39:42;;;;;;;0.00;0.00;;;;;;;40.20;18.55;101363.19;6255289;22;20653;-80
2023/04/08 09:42:55;;;;;;;;;;;;;;;;;;;;;
2023/04/08 09:45:51;;;;;;;0.00;0.00;;;;;;;41.32;16.37;101348.50;6272886;22;20486;-83
2023/04/08 09:48:42;;;;;;;0.00;0.00;;;;;;;41.42;17.17;101363.78;6275709;22;20050;-78
2023/04/08 09:51:20;;;;;;;0.00;0.00;;;;;;;41.16;16.25;101358.81;6272127;22;20014;-78
2023/04/08 09:54:09;;;;;;;0.00;0.00;;;;;;;40.64;15.90;101371.41;6268825;22;20006;-78
2023/04/08 09:56:47;;;;;;;0.00;0.00;;;;;;;41.48;15.98;101374.22;6256769;22;20000;-79
2023/04/08 09:59:57;;;;;;;;;;;;;;;;;;;;;
2023/04/08 10:06:20;;;;;;;0.00;0.00;;;;;;;43.69;14.19;101367.00;6191003;23;20021;-81
2023/04/08 10:08:57;;;;;;;0.00;0.00;;;;;;;43.90;14.41;101371.09;6178293;23;20026;-81
2023/04/08 10:11:23;;;;;;;0.00;0.00;;;;;;;44.52;14.09;101349.81;6255474;22;20003;-80
2023/04/08 10:13:56;;;;;;;0.00;0.00;;;;;;;45.18;13.89;101351.28;6292165;22;20084;-79
2023/04/08 10:16:25;;;;;;;0.00;0.00;;;;;;;44.35;12.78;101354.31;6294222;22;20059;-82
2023/04/08 10:18:55;;;;;;;0.00;0.00;;;;;;;43.33;12.15;101345.44;6292092;22;20015;-79
2023/04/08 10:21:50;;;;;;;0.00;0.00;;;;;;;43.12;13.71;101342.16;6295302;22;20064;-80
2023/04/08 10:24:17;;;;;;;0.00;0.00;;;;;;;42.38;11.93;101345.34;6247334;22;20003;-80
2023/04/08 10:26:47;;;;;;;0.00;0.00;;;;;;;40.89;12.62;101327.72;6248456;22;20303;-80
2023/04/08 10:29:25;;;;;;;0.00;0.00;;;;;;;40.23;12.66;101344.28;6273608;22;20421;-80
2023/04/08 10:31:51;;;;;;;0.00;0.00;;;;;;;39.53;13.52;101306.38;6274791;22;20042;-83
2023/04/08 10:34:34;;;;;;;0.00;0.00;;;;;;;39.23;12.77;101334.09;6249751;22;20011;-81
2023/04/08 10:37:20;;;;;;;0.00;0.00;;;;;;;37.40;13.81;101301.22;6274384;22;19995;-79
2023/04/08 10:39:51;;;;;;;0.00;0.00;;;;;;;37.08;14.12;101317.56;6269729;22;20003;-79
2023/04/08 10:42:17;;;;;;;0.00;0.00;;;;;;;35.40;15.05;101318.03;6300909;22;20444;-79
2023/04/08 10:44:45;;;;;;;0.00;0.00;;;;;;;36.49;15.34;101321.53;6285799;22;20003;-80
2023/04/08 10:47:13;;;;;;;0.00;0.00;;;;;;;37.92;14.73;101326.44;6273967;22;20023;-79
2023/04/08 10:50:02;;;;;;;0.00;0.00;;;;;;;38.67;14.54;101334.88;6290673;22;20007;-83
2023/04/08 10:52:27;;;;;;;0.00;0.00;;;;;;;39.54;14.10;101334.56;6289225;22;19999;-81
2023/04/08 10:54:53;;;;;;;0.00;0.00;;;;;;;41.27;13.51;101324.06;6273025;22;19999;-79
2023/04/08 10:57:26;;;;;;;0.00;0.00;;;;;;;41.98;11.61;101313.53;6248702;22;20003;-83
2023/04/08 11:00:00;;;;;;;0.00;0.00;;;;;;;41.46;12.20;101319.38;6309406;22;20094;-78
2023/04/08 11:02:32;;;;;;;0.00;0.00;;;;;;;41.25;12.49;101308.56;6323879;22;20051;-80
2023/04/08 11:04:57;;;;;;;0.00;0.00;;;;;;;40.52;12.49;101309.13;6288996;22;20087;-75
2023/04/08 11:07:25;;;;;;;0.00;0.00;;;;;;;41.54;12.09;101301.91;6264580;22;20557;-76
2023/04/08 11:09:51;;;;;;;0.00;0.00;;;;;;;41.35;10.84;101304.56;6274200;22;20003;-79
2023/04/08 11:12:21;;;;;;;0.00;0.00;;;;;;;42.02;11.68;101296.97;6243084;22;20015;-80
2023/04/08 11:14:54;;;;;;;0.00;0.00;;;;;;;43.52;10.61;101294.53;6265526;22;20010;-81
2023/04/08 11:17:22;;;;;;;0.00;0.00;;;;;;;44.31;10.58;101296.03;6267783;22;20361;-78
2023/04/08 11:19:48;;;;;;;0.00;0.00;;;;;;;46.80;10.24;101304.50;6260607;22;20016;-74
2023/04/08 11:22:15;;;;;;;0.00;0.00;;;;;;;47.18;9.36;101297.75;6242969;22;20441;-77
2023/04/08 11:24:41;;;;;;;0.00;0.00;;;;;;;43.86;8.63;101298.44;6214388;22;20072;-78
2023/04/08 11:27:26;;;;;;;0.00;0.00;;;;;;;39.05;11.42;101286.66;6240269;22;20008;-80
2023/04/08 11:29:56;;;;;;;0.00;0.00;;;;;;;39.30;12.01;101293.88;6264404;22;20004;-80
2023/04/08 11:32:24;;;;;;;0.00;0.00;;;;;;;40.79;11.46;101282.94;6246729;22;20018;-79
2023/04/08 11:34:50;;;;;;;0.00;0.00;;;;;;;41.47;11.31;101291.47;6269974;22;20071;-80
2023/04/08 11:37:18;;;;;;;0.00;0.00;;;;;;;42.87;10.88;101282.72;6244916;22;20082;-79
2023/04/08 11:39:46;;;;;;;0.00;0.00;;;;;;;43.31;9.12;101278.94;6241934;22;20011;-79
2023/04/08 11:42:57;;;;;;;;;;;;;;;;;;;;;
2023/04/08 11:45:36;;;;;;;0.00;0.00;;;;;;;43.20;8.81;101267.88;6149000;23;20467;-81
2023/04/08 11:48:10;;;;;;;0.00;0.00;;;;;;;42.94;8.58;101273.03;6241278;22;20472;-81
2023/04/08 11:50:42;;;;;;;0.00;0.00;;;;;;;42.43;8.68;101280.69;6280317;22;19999;-79
2023/04/08 11:53:23;;;;;;;0.00;0.00;;;;;;;41.84;8.36;101269.69;6289129;22;20004;-79
2023/04/08 11:55:49;;;;;;;0.00;0.00;;;;;;;42.37;9.06;101291.22;6288742;22;20008;-75
2023/04/08 11:58:15;;;;;;;0.00;0.00;;;;;;;44.07;8.85;101299.53;6266365;22;20018;-79
2023/04/08 12:00:41;;;;;;;0.00;0.00;;;;;;;41.96;9.42;101293.09;6215530;22;20019;-81
2023/04/08 12:03:09;;;;;;;0.00;0.00;;;;;;;37.41;11.23;101291.44;6269409;22;19999;-80
2023/04/08 12:05:35;;;;;;;0.00;0.00;;;;;;;36.27;12.46;101281.88;6272797;22;20011;-80
2023/04/08 12:08:01;;;;;;;0.00;0.00;;;;;;;39.75;11.37;101284.59;6274415;22;20493;-80
2023/04/08 12:10:26;;;;;;;0.00;0.00;;;;;;;42.13;9.54;101291.66;6224173;22;20034;-79
2023/04/08 12:12:52;;;;;;;0.00;0.00;;;;;;;44.27;9.04;101291.22;6219699;22;20055;-80
2023/04/08 12:15:17;;;;;;;0.00;0.00;;;;;;;44.44;8.74;101276.50;6250039;22;20003;-80
2023/04/08 12:17:43;;;;;;;0.00;0.00;;;;;;;45.69;7.89;101283.16;6219914;22;19999;-80
2023/04/08 12:20:10;;;;;;;0.00;0.00;;;;;;;45.51;7.06;101298.53;6274588;22;20007;-81
2023/04/08 12:22:35;;;;;;;0.00;0.00;;;;;;;42.81;8.11;101279.66;6246412;22;20435;-80
2023/04/08 12:25:02;;;;;;;0.00;0.00;;;;;;;43.13;7.88;101285.44;6274699;22;20034;-81
2023/04/08 12:27:28;;;;;;;0.00;0.00;;;;;;;42.32;7.77;101281.13;6272857;22;20085;-80
2023/04/08 12:29:54;;;;;;;0.00;0.00;;;;;;;41.38;8.15;101268.41;6269185;22;20011;-79
2023/04/08 12:32:35;;;;;;;0.00;0.00;;;;;;;41.14;8.72;101271.63;6249826;22;20038;-81
2023/04/08 12:35:01;;;;;;;0.00;0.00;;;;;;;40.28;8.80;101272.16;6273413;22;20021;-82
2023/04/08 12:37:35;;;;;;;0.00;0.00;;;;;;;41.90;9.07;101271.97;6253193;22;20082;-81
2023/04/08 12:40:03;;;;;;;0.00;0.00;;;;;;;42.35;8.19;101251.44;6247746;22;20007;-75
2023/04/08 12:42:28;;;;;;;0.00;0.00;;;;;;;43.41;8.20;101271.91;6301490;22;20023;-75
2023/04/08 12:44:54;;;;;;;0.00;0.00;;;;;;;39.32;8.41;101262.75;6270263;22;20022;-74
2023/04/08 12:47:22;;;;;;;0.00;0.00;;;;;;;37.44;10.30;101244.94;6302279;22;19999;-74
2023/04/08 12:49:50;;;;;;;0.00;0.00;;;;;;;39.74;8.92;101257.22;6245919;22;20425;-71
2023/04/08 12:52:18;;;;;;;0.00;0.00;;;;;;;40.71;8.46;101259.41;6274351;22;19999;-74
2023/04/08 12:54:44;;;;;;;0.00;0.00;;;;;;;41.61;8.04;101244.25;6273935;22;19999;-75
2023/04/08 12:57:18;;;;;;;0.00;0.00;;;;;;;43.32;7.86;101251.75;6298875;22;19999;-74
2023/04/08 13:03:53;;;;;;;;;;;;;;;;;;;;;
2023/04/08 13:06:20;;;;;;;0.00;0.00;;;;;;;33.85;12.02;101225.72;6146220;23;20656;-79
2023/04/08 13:13:16;;;;;;;0.00;0.00;;;;;;;28.65;16.49;101233.16;6065973;23;20137;-77
2023/04/08 13:20:22;;;;;;;0.00;0.00;;;;;;;27.63;17.35;101184.25;6000234;23;20506;-81
2023/04/08 13:23:33;;;;;;;0.00;0.00;;;;;;;30.32;16.84;101226.31;5999265;23;20015;-78
2023/04/08 13:27:28;;;;;;;;;;;;;;;;;;;;;
2023/04/08 13:51:12;;;;;;;;;;;;;;;;;;;;;
2023/04/08 13:58:23;;;;;;;;;;;;;;;;;;;;;
2023/04/08 14:05:33;;;;;;;;;;;;;;;;;;;;;
2023/04/08 14:11:45;;;;;;;0.00;0.00;;;;;;;32.51;14.22;101193.53;5987693;23;20041;-77
2023/04/08 14:32:38;;;;;;;;;;;;;;;;;;;;;
2023/04/08 14:35:52;;;;;;;;;;;;;;;;;;;;;
2023/04/08 14:49:14;;;;;;;0.00;0.00;;;;;;;25.77;19.36;101145.03;5830851;24;20010;-80
2023/04/08 14:52:40;;;;;;;;;;;;;;;;;;;;;